Pt. Reyes RCA field Weather observations

Data are for 10 minute period ending at time listed.
 Day   Time   Solar   Ave.   Ave.  Ave.  Vector    Max.   Stn.   Total 
  of    of     Rad.   Air    Rel.  Wind   Wind     Wind   Baro. Precip.
Year   Day            Temp.  Hum.  Speed  Dir.     Gust   Pres.        
2016   (PST)   W/m2    F      %     mph   deg.      mph    mb.    in.  
-----------------------------------------------------------------------
 273    8:30   59.0    52   99.4     9    300.5    13.5   1015.2  0.00  
 273    8:40   65.0    52   99.4    10    289.0    13.2   1015.2  0.00  
 273    8:50   77.0    52   99.2    10    295.0    12.9   1015.2  0.00  
 273    9:00   83.0    52   99.1    10    306.8    15.0   1015.2  0.00  
 273    9:10  102.0    52   98.7    10    306.6    14.2   1015.6  0.00  
 273    9:20   92.0    52   98.1    10    306.4    13.2   1015.6  0.00  
 273    9:30  105.0    53   97.4     9    305.2    11.6   1015.6  0.00  
 273    9:40  118.0    53   96.4     9    303.8    14.1   1015.6  0.00  
 273    9:50  139.0    53   95.1    11    304.6    14.7   1015.6  0.00  
 273   10:00  147.0    54   93.8     9    303.7    13.2   1015.6  0.00  
 273   10:10  148.0    54   93.0    10    301.2    13.6   1015.9  0.00  
 273   10:20  160.0    54   92.1    12    307.2    15.8   1015.9  0.00  
 273   10:30  179.0    54   91.9    11    313.9    14.2   1015.9  0.00  
 273   10:40  177.0    54   91.8    10    313.7    14.0   1015.9  0.00  
 273   10:50  183.0    54   91.5     9    314.5    13.2   1015.9  0.00  
 273   11:00  186.0    54   91.1    10    307.6    12.6   1015.9  0.00  
 273   11:10  175.0    54   90.7    10    308.9    13.6   1015.9  0.00  
 273   11:20  202.0    54   90.7    11    309.0    14.7   1015.9  0.00  
 273   11:30  199.0    54   90.3    11    310.6    15.2   1015.9  0.00  
 273   11:40  190.0    54   90.5    12    312.7    15.9   1015.9  0.00  
 273   11:50  210.0    54   89.6    12    307.5    14.8   1015.9  0.00  
 273   12:00  218.0    55   88.9    12    310.6    15.3   1015.9  0.00  
 273   12:10  233.0    55   87.7    12    310.1    15.5   1015.9  0.00  
 273   12:20  226.0    55   87.7    13    311.7    15.2   1015.9  0.00  
 273   12:30  223.0    55   87.2    13    311.5    17.5   1015.6  0.00  
 273   12:40  243.0    55   86.6    14    306.9    17.9   1015.6  0.00  
 273   12:50  244.0    55   86.3    14    307.5    18.0   1015.6  0.00  
 273   13:00  223.0    55   86.8    13    306.0    16.6   1015.6  0.00  
 273   13:10  219.0    55   86.8    13    311.3    16.4   1015.6  0.00  
 273   13:20  210.0    55   87.1    12    308.7    15.5   1015.6  0.00  
 273   13:30  206.0    55   86.9    13    304.5    17.2   1015.6  0.00  
 273   13:40  198.0    55   87.1    12    303.1    17.4   1015.6  0.00  
 273   13:50  193.0    55   87.0    12    307.0    15.9   1015.6  0.00  
 273   14:00  177.0    55   88.0    13    311.2    17.2   1015.2  0.00  
 273   14:10  180.0    55   88.2    13    311.0    17.6   1015.2  0.00  
 273   14:20  174.0    55   88.6    13    308.6    16.1   1015.2  0.00  
 273   14:30  148.0    55   88.9    13    310.5    17.2   1015.2  0.00  
 273   14:40  134.0    55   89.6    13    312.3    17.0   1015.2  0.00  
 273   14:50  112.0    54   91.1    13    308.9    17.8   1015.2  0.00  
 273   15:00  108.0    54   91.1    14    304.4    17.3   1015.2  0.00  
 273   15:10  111.0    54   90.7    13    304.0    17.8   1015.2  0.00  
 273   15:20   95.0    54   91.0    14    311.0    18.0   1014.9  0.00  
 273   15:30   84.0    54   91.5    14    311.7    17.5   1014.9  0.00  
 273   15:40   92.0    54   91.4    15    310.0    19.3   1014.9  0.00  
 273   15:50   89.0    54   91.0    14    312.1    17.5   1014.9  0.00  
 273   16:00   83.0    54   91.4    13    310.7    17.8   1014.6  0.00  
 273   16:10   72.0    54   91.5    12    315.6    16.0   1014.6  0.00  
 273   16:20   57.0    54   92.1    12    313.0    16.6   1014.6  0.00  
 273   16:30   46.0    54   92.6    11    309.3    17.0   1014.6  0.00  
 273   16:40   40.0    53   92.9    13    311.3    16.6   1014.6  0.00  
 273   16:50   30.0    53   93.8    11    310.1    15.1   1014.6  0.00  
 273   17:00   23.0    53   94.1    12    310.6    15.1   1014.6  0.00  
 273   17:10   16.0    53   94.9    12    307.3    14.8   1014.6  0.00  
 273   17:20   11.0    53   95.4    11    309.0    14.8   1014.6  0.00  
 273   17:30   10.0    52   95.2    10    306.8    14.0   1014.2  0.00  
 273   17:40    4.0    53   95.4     9    304.8    12.3   1014.6  0.00  
 273   17:50    3.0    52   95.6    10    293.6    12.9   1014.6  0.00  
 273   18:00    3.0    52   95.9    11    304.2    15.5   1014.6  0.00  
 273   18:10    1.0    52   96.6    10    310.8    14.7   1014.6  0.00  
 273   18:20    0.0    52   97.0    10    302.9    13.4   1014.6  0.00  
 273   18:30    0.0    52   97.1    10    297.2    14.7   1014.6  0.00  
 273   18:40    0.0    52   97.4    10    299.4    12.9   1014.6  0.00  
 273   18:50    0.0    52   97.4    10    301.2    15.7   1014.6  0.00  
 273   19:00    0.0    52   97.5    11    301.5    14.3   1014.6  0.00  
 273   19:10    0.0    52   97.5     9    297.0    14.0   1014.6  0.00  
 273   19:20    0.0    52   97.6    11    303.2    14.2   1014.9  0.00  
 273   19:30    0.0    52   97.8    10    300.4    14.5   1014.9  0.00  
 273   19:40    0.0    52   97.9    11    298.7    15.3   1015.2  0.00  
 273   19:50    0.0    52   98.0    11    300.4    15.3   1015.2  0.00  
 273   20:00    0.0    51   98.1    12    300.5    16.4   1015.2  0.00  
 273   20:10    0.0    51   98.3    12    312.6    17.1   1015.2  0.00  
 273   20:20    0.0    51   98.4    12    309.0    16.1   1015.2  0.00  
 273   20:30    0.0    51   98.5    11    299.9    16.5   1015.2  0.00  
 273   20:40    0.0    51   98.6    11    298.4    16.3   1015.2  0.00  
 273   20:50    0.0    51   98.7    11    295.1    15.0   1015.2  0.00  
 273   21:00    0.0    51   98.7    11    304.1    16.1   1015.2  0.00  
 273   21:10    0.0    51   98.7    11    312.8    14.6   1015.2  0.00  
 273   21:20    0.0    51   98.8    10    313.7    14.9   1015.2  0.00  
 273   21:30    0.0    51   98.9    11    309.4    17.5   1015.2  0.00  
 273   21:40    0.0    51   98.9    11    307.5    18.2   1015.2  0.00  
 273   21:50    0.0    51   98.9    10    310.9    13.7   1015.2  0.00  
 273   22:00    0.0    51   99.0    10    302.8    14.0   1015.2  0.00  
 273   22:10    0.0    51   99.0    11    300.3    16.1   1015.2  0.00  
 273   22:20    0.0    51   99.0    12    308.6    17.0   1015.2  0.00  
 273   22:30    0.0    51   99.0    10    306.1    15.3   1015.6  0.00  
 273   22:40    0.0    51   99.0    11    306.6    15.6   1015.6  0.00  
 273   22:50    0.0    51   99.1    10    307.2    13.1   1015.6  0.00  
 273   23:00    0.0    51   99.1    10    305.2    13.4   1015.6  0.00  
 273   23:10    0.0    51   99.2    11    309.3    16.2   1015.6  0.00  
 273   23:20    0.0    51   99.2    10    293.6    14.1   1015.2  0.00  
 273   23:30    0.0    51   99.3    10    293.3    15.0   1015.2  0.00  
 273   23:40    0.0    51   99.3    11    299.6    16.1   1015.2  0.00  
 273   23:50    0.0    51   99.3    11    302.3    16.8   1015.2  0.00  
 274    0:00    0.0    51   99.3    12    300.0    17.2   1015.2  0.00  
 274    0:10    0.0    51   99.4    12    309.6    15.4   1015.2  0.00  
 274    0:20    0.0    51   99.4    11    304.1    16.7   1015.2  0.00  
 274    0:30    0.0    51   99.4    12    306.3    16.3   1015.2  0.00  
 274    0:40    0.0    51   99.4    13    296.3    18.3   1015.6  0.00  
 274    0:50    0.0    50   99.4    14    305.4    19.1   1015.6  0.00  
 274    1:00    0.0    50   99.4    13    304.1    18.1   1015.6  0.00  
 274    1:10    0.0    50   99.3    14    307.3    20.2   1015.6  0.00  
 274    1:20    0.0    51   99.2    13    311.3    18.3   1015.6  0.00  
 274    1:30    0.0    51   99.0    11    307.2    15.1   1015.6  0.00  
 274    1:40    0.0    51   98.7    12    309.1    16.4   1015.6  0.00  
 274    1:50    0.0    51   98.3    12    299.3    17.8   1015.6  0.00  
 274    2:00    0.0    51   97.7    13    306.7    16.7   1015.6  0.00  
 274    2:10    0.0    51   97.0    13    309.0    18.2   1015.6  0.00  
 274    2:20    0.0    51   96.4    11    299.7    15.8   1015.6  0.00  
 274    2:30    0.0    51   96.2    11    306.1    15.4   1015.6  0.00  
 274    2:40    0.0    51   95.6    13    306.9    16.7   1015.6  0.00  
 274    2:50    0.0    52   95.0    12    305.7    15.8   1015.6  0.00  
 274    3:00    0.0    52   94.0    14    301.1    19.1   1015.6  0.00  
 274    3:10    0.0    52   93.6    12    306.2    17.6   1015.6  0.00  
 274    3:20    0.0    52   92.8    14    313.6    18.6   1015.6  0.00  
 274    3:30   -1.0    52   92.8    12    313.8    17.2   1015.6  0.00  
 274    3:40   -1.0    52   92.6    12    314.6    15.1   1015.6  0.00  
 274    3:50   -1.0    52   92.6    11    308.7    15.2   1015.6  0.00  
 274    4:00   -1.0    52   92.7    11    305.5    14.2   1015.6  0.00  
 274    4:10   -1.0    52   92.8    11    302.9    14.8   1015.6  0.00  
 274    4:20   -1.0    52   92.4    11    305.4    15.9   1015.6  0.00  
 274    4:30   -1.0    52   92.2    12    307.2    15.9   1015.6  0.00  
 274    4:40   -1.0    52   91.8    13    306.9    17.1   1015.6  0.00  
 274    4:50   -1.0    52   91.9    11    303.6    15.3   1015.6  0.00  
 274    5:00   -1.0    52   92.3    13    304.2    17.7   1015.6  0.00  
 274    5:10   -1.0    52   91.9    13    304.0    18.5   1015.6  0.00  
 274    5:20    0.0    52   91.6    13    305.4    17.3   1015.6  0.00  
 274    5:30    0.0    52   91.3    13    305.0    17.6   1015.6  0.00  
 274    5:40    0.0    52   91.5    13    303.5    17.1   1015.6  0.00  
 274    5:50    0.0    52   91.2    14    305.1    18.9   1015.6  0.00  
 274    6:00    2.0    52   91.0    14    303.2    18.2   1015.6  0.00  
 274    6:10    3.0    52   91.4    13    304.1    17.7   1015.9  0.00  
 274    6:20    7.0    52   91.7    12    304.4    16.4   1015.9  0.00  
 274    6:30   13.0    52   91.2    12    303.7    15.4   1015.9  0.00  
 274    6:40   34.0    52   91.3    12    302.2    16.2   1015.9  0.00  
 274    6:50   73.0    53   90.0    13    300.7    18.4   1015.9  0.00  
 274    7:00  102.0    53   88.5    13    300.5    17.3   1015.9  0.00  
 274    7:10  128.0    53   87.5    14    300.8    18.4   1015.9  0.00  
 274    7:20  155.0    54   86.8    15    298.4    18.5   1015.9  0.00  
 274    7:30  182.0    54   86.2    14    298.4    18.8   1015.9  0.00  
 274    7:40  209.0    54   85.2    13    302.1    18.2   1016.3  0.00  
 274    7:50  237.0    55   84.6    13    303.8    16.6   1016.3  0.00  
 274    8:00  264.0    55   83.6    12    301.8    17.2   1016.3  0.00  
 274    8:10  291.0    56   82.5    13    301.5    18.8   1016.3  0.00  
 274    8:20  319.0    56   82.2    13    304.8    17.8   1016.6  0.00  

Return to Pt. Reyes graphs page.


Western Regional Climate Center,wrcc@dri.edu